sensor_id;sensor_type;location;lat;lon;timestamp;P1;durP1;ratioP1;P2;durP2;ratioP2
6823;SDS011;58633;49.470;11.004;2023-07-24T00:00:19;10.25;;;4.93;;
6823;SDS011;58633;49.470;11.004;2023-07-24T00:02:45;7.05;;;4.80;;
6823;SDS011;58633;49.470;11.004;2023-07-24T00:05:10;7.60;;;4.60;;
6823;SDS011;58633;49.470;11.004;2023-07-24T00:07:36;7.38;;;4.88;;
6823;SDS011;58633;49.470;11.004;2023-07-24T00:10:02;6.75;;;5.13;;
6823;SDS011;58633;49.470;11.004;2023-07-24T00:12:28;11.82;;;4.97;;
6823;SDS011;58633;49.470;11.004;2023-07-24T00:14:53;5.65;;;4.55;;
6823;SDS011;58633;49.470;11.004;2023-07-24T00:17:19;7.03;;;4.45;;
6823;SDS011;58633;49.470;11.004;2023-07-24T00:19:44;7.28;;;4.95;;
6823;SDS011;58633;49.470;11.004;2023-07-24T00:22:10;7.10;;;5.03;;
6823;SDS011;58633;49.470;11.004;2023-07-24T00:24:35;7.72;;;4.70;;
6823;SDS011;58633;49.470;11.004;2023-07-24T00:27:01;8.15;;;4.80;;
6823;SDS011;58633;49.470;11.004;2023-07-24T00:29:27;9.00;;;4.80;;
6823;SDS011;58633;49.470;11.004;2023-07-24T00:31:53;7.68;;;4.85;;
6823;SDS011;58633;49.470;11.004;2023-07-24T00:34:19;8.43;;;5.00;;
6823;SDS011;58633;49.470;11.004;2023-07-24T00:36:44;8.50;;;4.63;;
6823;SDS011;58633;49.470;11.004;2023-07-24T00:39:10;9.77;;;4.80;;
6823;SDS011;58633;49.470;11.004;2023-07-24T00:41:35;8.18;;;4.30;;
6823;SDS011;58633;49.470;11.004;2023-07-24T00:44:01;7.45;;;4.78;;
6823;SDS011;58633;49.470;11.004;2023-07-24T00:46:27;9.35;;;5.18;;
6823;SDS011;58633;49.470;11.004;2023-07-24T00:48:56;11.00;;;5.40;;
6823;SDS011;58633;49.470;11.004;2023-07-24T00:51:23;7.75;;;4.55;;
6823;SDS011;58633;49.470;11.004;2023-07-24T00:53:48;7.10;;;4.97;;
6823;SDS011;58633;49.470;11.004;2023-07-24T00:56:14;9.25;;;4.88;;
6823;SDS011;58633;49.470;11.004;2023-07-24T00:58:39;8.32;;;4.88;;
6823;SDS011;58633;49.470;11.004;2023-07-24T01:01:05;11.23;;;5.70;;
6823;SDS011;58633;49.470;11.004;2023-07-24T01:03:34;8.43;;;5.32;;
6823;SDS011;58633;49.470;11.004;2023-07-24T01:06:03;9.13;;;4.95;;
6823;SDS011;58633;49.470;11.004;2023-07-24T01:08:29;7.85;;;5.20;;
6823;SDS011;58633;49.470;11.004;2023-07-24T01:10:56;7.55;;;5.35;;
6823;SDS011;58633;49.470;11.004;2023-07-24T01:13:24;9.27;;;5.38;;
6823;SDS011;58633;49.470;11.004;2023-07-24T01:16:04;8.80;;;5.63;;
6823;SDS011;58633;49.470;11.004;2023-07-24T01:18:37;10.88;;;5.63;;
6823;SDS011;58633;49.470;11.004;2023-07-24T01:21:04;8.15;;;5.28;;
6823;SDS011;58633;49.470;11.004;2023-07-24T01:23:38;10.77;;;5.53;;
6823;SDS011;58633;49.470;11.004;2023-07-24T01:26:15;8.65;;;5.50;;
6823;SDS011;58633;49.470;11.004;2023-07-24T01:28:41;6.47;;;4.78;;
6823;SDS011;58633;49.470;11.004;2023-07-24T01:31:07;8.85;;;5.65;;
6823;SDS011;58633;49.470;11.004;2023-07-24T01:33:33;8.88;;;5.43;;
6823;SDS011;58633;49.470;11.004;2023-07-24T01:36:00;8.80;;;5.60;;
6823;SDS011;58633;49.470;11.004;2023-07-24T01:38:27;9.15;;;5.95;;
6823;SDS011;58633;49.470;11.004;2023-07-24T01:40:56;9.57;;;6.10;;
6823;SDS011;58633;49.470;11.004;2023-07-24T01:43:22;10.05;;;6.25;;
6823;SDS011;58633;49.470;11.004;2023-07-24T01:45:48;10.75;;;6.22;;
6823;SDS011;58633;49.470;11.004;2023-07-24T01:48:13;11.10;;;6.43;;
6823;SDS011;58633;49.470;11.004;2023-07-24T01:50:39;8.60;;;5.60;;
6823;SDS011;58633;49.470;11.004;2023-07-24T01:53:04;9.65;;;5.85;;
6823;SDS011;58633;49.470;11.004;2023-07-24T01:55:30;8.45;;;5.72;;
6823;SDS011;58633;49.470;11.004;2023-07-24T01:57:55;11.38;;;5.90;;
6823;SDS011;58633;49.470;11.004;2023-07-24T02:00:21;11.23;;;6.30;;
6823;SDS011;58633;49.470;11.004;2023-07-24T02:02:46;10.75;;;6.25;;
6823;SDS011;58633;49.470;11.004;2023-07-24T02:05:12;10.75;;;6.70;;
6823;SDS011;58633;49.470;11.004;2023-07-24T02:07:37;9.02;;;5.80;;
6823;SDS011;58633;49.470;11.004;2023-07-24T02:10:03;8.88;;;5.47;;
6823;SDS011;58633;49.470;11.004;2023-07-24T02:12:29;7.95;;;5.68;;
6823;SDS011;58633;49.470;11.004;2023-07-24T02:14:54;8.43;;;5.75;;
6823;SDS011;58633;49.470;11.004;2023-07-24T02:17:20;8.13;;;5.75;;
6823;SDS011;58633;49.470;11.004;2023-07-24T02:19:46;8.05;;;5.30;;
6823;SDS011;58633;49.470;11.004;2023-07-24T02:22:11;10.77;;;6.22;;
6823;SDS011;58633;49.470;11.004;2023-07-24T02:24:37;10.77;;;6.75;;
6823;SDS011;58633;49.470;11.004;2023-07-24T02:27:02;9.95;;;6.45;;
6823;SDS011;58633;49.470;11.004;2023-07-24T02:29:29;9.60;;;6.20;;
6823;SDS011;58633;49.470;11.004;2023-07-24T02:31:55;10.75;;;6.65;;
6823;SDS011;58633;49.470;11.004;2023-07-24T02:34:22;11.95;;;6.53;;
6823;SDS011;58633;49.470;11.004;2023-07-24T02:36:50;10.88;;;7.10;;
6823;SDS011;58633;49.470;11.004;2023-07-24T02:39:19;10.40;;;6.20;;
6823;SDS011;58633;49.470;11.004;2023-07-24T02:41:45;10.07;;;6.00;;
6823;SDS011;58633;49.470;11.004;2023-07-24T02:44:13;10.35;;;7.05;;
6823;SDS011;58633;49.470;11.004;2023-07-24T02:46:38;8.32;;;5.85;;
6823;SDS011;58633;49.470;11.004;2023-07-24T02:49:04;9.90;;;6.28;;
6823;SDS011;58633;49.470;11.004;2023-07-24T02:51:30;8.35;;;6.32;;
6823;SDS011;58633;49.470;11.004;2023-07-24T02:53:56;9.80;;;6.18;;
6823;SDS011;58633;49.470;11.004;2023-07-24T02:56:21;11.07;;;7.22;;
6823;SDS011;58633;49.470;11.004;2023-07-24T02:58:47;8.70;;;6.35;;
6823;SDS011;58633;49.470;11.004;2023-07-24T03:01:13;10.68;;;6.38;;
6823;SDS011;58633;49.470;11.004;2023-07-24T03:03:39;9.82;;;6.22;;
6823;SDS011;58633;49.470;11.004;2023-07-24T03:06:05;11.43;;;6.38;;
6823;SDS011;58633;49.470;11.004;2023-07-24T03:08:31;10.50;;;6.60;;
6823;SDS011;58633;49.470;11.004;2023-07-24T03:10:57;10.68;;;6.47;;
6823;SDS011;58633;49.470;11.004;2023-07-24T03:13:23;11.27;;;6.90;;
6823;SDS011;58633;49.470;11.004;2023-07-24T03:15:55;9.50;;;6.63;;
6823;SDS011;58633;49.470;11.004;2023-07-24T03:18:22;10.82;;;6.40;;
6823;SDS011;58633;49.470;11.004;2023-07-24T03:20:47;11.55;;;7.07;;
6823;SDS011;58633;49.470;11.004;2023-07-24T03:23:13;10.38;;;6.75;;
6823;SDS011;58633;49.470;11.004;2023-07-24T03:25:39;10.55;;;6.68;;
6823;SDS011;58633;49.470;11.004;2023-07-24T03:28:05;10.60;;;6.60;;
6823;SDS011;58633;49.470;11.004;2023-07-24T03:30:30;10.43;;;6.85;;
6823;SDS011;58633;49.470;11.004;2023-07-24T03:32:56;11.30;;;6.30;;
6823;SDS011;58633;49.470;11.004;2023-07-24T03:35:22;9.88;;;6.32;;
6823;SDS011;58633;49.470;11.004;2023-07-24T03:37:48;9.32;;;6.03;;
6823;SDS011;58633;49.470;11.004;2023-07-24T03:40:13;12.27;;;6.45;;
6823;SDS011;58633;49.470;11.004;2023-07-24T03:42:39;9.63;;;6.45;;
6823;SDS011;58633;49.470;11.004;2023-07-24T03:45:05;11.75;;;6.75;;
6823;SDS011;58633;49.470;11.004;2023-07-24T03:47:31;8.75;;;6.25;;
6823;SDS011;58633;49.470;11.004;2023-07-24T03:49:57;11.23;;;6.43;;
6823;SDS011;58633;49.470;11.004;2023-07-24T03:52:22;11.30;;;6.82;;
6823;SDS011;58633;49.470;11.004;2023-07-24T03:54:48;9.63;;;6.40;;
6823;SDS011;58633;49.470;11.004;2023-07-24T03:57:13;9.88;;;6.20;;
6823;SDS011;58633;49.470;11.004;2023-07-24T03:59:39;12.57;;;7.55;;
6823;SDS011;58633;49.470;11.004;2023-07-24T04:02:04;9.60;;;6.30;;
6823;SDS011;58633;49.470;11.004;2023-07-24T04:04:30;11.65;;;6.30;;
6823;SDS011;58633;49.470;11.004;2023-07-24T04:06:57;8.93;;;6.15;;
6823;SDS011;58633;49.470;11.004;2023-07-24T04:09:22;9.60;;;6.22;;
6823;SDS011;58633;49.470;11.004;2023-07-24T04:11:47;11.05;;;6.65;;
6823;SDS011;58633;49.470;11.004;2023-07-24T04:14:13;12.52;;;6.50;;
6823;SDS011;58633;49.470;11.004;2023-07-24T04:16:38;9.88;;;6.60;;
6823;SDS011;58633;49.470;11.004;2023-07-24T04:19:04;9.80;;;6.32;;
6823;SDS011;58633;49.470;11.004;2023-07-24T04:21:30;10.30;;;6.63;;
6823;SDS011;58633;49.470;11.004;2023-07-24T04:23:55;10.80;;;6.60;;
6823;SDS011;58633;49.470;11.004;2023-07-24T04:26:21;10.57;;;6.95;;
6823;SDS011;58633;49.470;11.004;2023-07-24T04:28:46;9.27;;;6.65;;
6823;SDS011;58633;49.470;11.004;2023-07-24T04:31:12;10.73;;;6.97;;
6823;SDS011;58633;49.470;11.004;2023-07-24T04:33:38;11.02;;;6.82;;
6823;SDS011;58633;49.470;11.004;2023-07-24T04:36:04;9.45;;;6.43;;
6823;SDS011;58633;49.470;11.004;2023-07-24T04:38:29;10.85;;;6.85;;
6823;SDS011;58633;49.470;11.004;2023-07-24T04:40:55;10.18;;;6.93;;
6823;SDS011;58633;49.470;11.004;2023-07-24T04:43:20;9.88;;;6.70;;
6823;SDS011;58633;49.470;11.004;2023-07-24T04:45:46;10.35;;;6.70;;
6823;SDS011;58633;49.470;11.004;2023-07-24T04:48:12;11.77;;;6.68;;
6823;SDS011;58633;49.470;11.004;2023-07-24T04:50:37;12.20;;;7.25;;
6823;SDS011;58633;49.470;11.004;2023-07-24T04:53:03;9.60;;;7.05;;
6823;SDS011;58633;49.470;11.004;2023-07-24T04:55:28;11.32;;;7.55;;
6823;SDS011;58633;49.470;11.004;2023-07-24T04:57:54;12.18;;;8.07;;
6823;SDS011;58633;49.470;11.004;2023-07-24T05:00:19;14.00;;;10.45;;
6823;SDS011;58633;49.470;11.004;2023-07-24T05:02:45;13.88;;;9.05;;
6823;SDS011;58633;49.470;11.004;2023-07-24T05:05:10;11.57;;;8.63;;
6823;SDS011;58633;49.470;11.004;2023-07-24T05:07:36;9.30;;;7.13;;
6823;SDS011;58633;49.470;11.004;2023-07-24T05:10:01;10.85;;;7.28;;
6823;SDS011;58633;49.470;11.004;2023-07-24T05:12:27;10.23;;;6.65;;
6823;SDS011;58633;49.470;11.004;2023-07-24T05:14:53;8.88;;;7.00;;
6823;SDS011;58633;49.470;11.004;2023-07-24T05:17:18;13.05;;;6.30;;
6823;SDS011;58633;49.470;11.004;2023-07-24T05:19:44;11.38;;;6.80;;
6823;SDS011;58633;49.470;11.004;2023-07-24T05:22:09;10.60;;;6.90;;
6823;SDS011;58633;49.470;11.004;2023-07-24T05:24:36;10.00;;;7.07;;
6823;SDS011;58633;49.470;11.004;2023-07-24T05:27:02;11.27;;;7.20;;
6823;SDS011;58633;49.470;11.004;2023-07-24T05:29:29;11.95;;;7.80;;
6823;SDS011;58633;49.470;11.004;2023-07-24T05:31:54;11.35;;;7.45;;
6823;SDS011;58633;49.470;11.004;2023-07-24T05:34:20;11.40;;;8.10;;
6823;SDS011;58633;49.470;11.004;2023-07-24T05:36:45;11.02;;;7.70;;
6823;SDS011;58633;49.470;11.004;2023-07-24T05:39:11;11.57;;;7.45;;
6823;SDS011;58633;49.470;11.004;2023-07-24T05:41:36;11.35;;;7.22;;
6823;SDS011;58633;49.470;11.004;2023-07-24T05:44:02;11.10;;;7.40;;
6823;SDS011;58633;49.470;11.004;2023-07-24T05:46:27;12.63;;;7.30;;
6823;SDS011;58633;49.470;11.004;2023-07-24T05:48:53;9.82;;;6.65;;
6823;SDS011;58633;49.470;11.004;2023-07-24T05:51:19;12.93;;;6.90;;
6823;SDS011;58633;49.470;11.004;2023-07-24T05:53:44;11.75;;;7.72;;
6823;SDS011;58633;49.470;11.004;2023-07-24T05:56:09;10.57;;;6.70;;
6823;SDS011;58633;49.470;11.004;2023-07-24T05:58:35;11.32;;;6.30;;
6823;SDS011;58633;49.470;11.004;2023-07-24T06:01:01;10.85;;;6.20;;
6823;SDS011;58633;49.470;11.004;2023-07-24T06:03:26;12.02;;;6.72;;
6823;SDS011;58633;49.470;11.004;2023-07-24T06:05:52;10.38;;;6.47;;
6823;SDS011;58633;49.470;11.004;2023-07-24T06:08:19;10.95;;;6.68;;
6823;SDS011;58633;49.470;11.004;2023-07-24T06:10:48;12.60;;;7.40;;
6823;SDS011;58633;49.470;11.004;2023-07-24T06:13:17;11.80;;;6.82;;
6823;SDS011;58633;49.470;11.004;2023-07-24T06:15:43;12.05;;;7.13;;
6823;SDS011;58633;49.470;11.004;2023-07-24T06:18:09;11.32;;;7.13;;
6823;SDS011;58633;49.470;11.004;2023-07-24T06:20:35;13.80;;;7.25;;
6823;SDS011;58633;49.470;11.004;2023-07-24T06:23:01;10.90;;;6.97;;
6823;SDS011;58633;49.470;11.004;2023-07-24T06:25:29;12.02;;;6.68;;
6823;SDS011;58633;49.470;11.004;2023-07-24T06:27:57;11.27;;;6.70;;
6823;SDS011;58633;49.470;11.004;2023-07-24T06:30:23;13.02;;;7.32;;
6823;SDS011;58633;49.470;11.004;2023-07-24T06:32:49;14.48;;;7.53;;
6823;SDS011;58633;49.470;11.004;2023-07-24T06:35:14;11.93;;;7.00;;
6823;SDS011;58633;49.470;11.004;2023-07-24T06:37:40;13.50;;;7.40;;
6823;SDS011;58633;49.470;11.004;2023-07-24T06:40:06;12.10;;;8.00;;
6823;SDS011;58633;49.470;11.004;2023-07-24T06:42:32;10.73;;;6.72;;
6823;SDS011;58633;49.470;11.004;2023-07-24T06:44:58;9.20;;;6.90;;
6823;SDS011;58633;49.470;11.004;2023-07-24T06:47:24;11.27;;;7.22;;
6823;SDS011;58633;49.470;11.004;2023-07-24T06:49:49;15.90;;;7.38;;
6823;SDS011;58633;49.470;11.004;2023-07-24T06:52:15;10.10;;;6.63;;
6823;SDS011;58633;49.470;11.004;2023-07-24T06:54:41;10.75;;;6.60;;
6823;SDS011;58633;49.470;11.004;2023-07-24T06:57:06;10.30;;;6.82;;
6823;SDS011;58633;49.470;11.004;2023-07-24T06:59:32;13.30;;;6.75;;
6823;SDS011;58633;49.470;11.004;2023-07-24T07:01:58;13.20;;;7.18;;
6823;SDS011;58633;49.470;11.004;2023-07-24T07:04:23;11.55;;;7.03;;
6823;SDS011;58633;49.470;11.004;2023-07-24T07:06:49;13.20;;;7.22;;
6823;SDS011;58633;49.470;11.004;2023-07-24T07:09:14;9.55;;;6.47;;
6823;SDS011;58633;49.470;11.004;2023-07-24T07:11:40;10.75;;;6.43;;
6823;SDS011;58633;49.470;11.004;2023-07-24T07:14:05;10.60;;;6.43;;
6823;SDS011;58633;49.470;11.004;2023-07-24T07:16:33;9.52;;;6.68;;
6823;SDS011;58633;49.470;11.004;2023-07-24T07:18:59;10.20;;;6.68;;
6823;SDS011;58633;49.470;11.004;2023-07-24T07:21:24;11.07;;;6.65;;
6823;SDS011;58633;49.470;11.004;2023-07-24T07:23:50;8.75;;;6.43;;
6823;SDS011;58633;49.470;11.004;2023-07-24T07:26:16;7.97;;;6.07;;
6823;SDS011;58633;49.470;11.004;2023-07-24T07:28:41;11.75;;;6.60;;
6823;SDS011;58633;49.470;11.004;2023-07-24T07:31:07;8.93;;;6.32;;
6823;SDS011;58633;49.470;11.004;2023-07-24T07:33:33;11.65;;;6.38;;
6823;SDS011;58633;49.470;11.004;2023-07-24T07:35:58;10.52;;;6.45;;
6823;SDS011;58633;49.470;11.004;2023-07-24T07:38:24;12.98;;;6.30;;
6823;SDS011;58633;49.470;11.004;2023-07-24T07:40:50;9.45;;;6.50;;
6823;SDS011;58633;49.470;11.004;2023-07-24T07:43:15;12.05;;;7.30;;
6823;SDS011;58633;49.470;11.004;2023-07-24T07:45:41;10.55;;;6.00;;
6823;SDS011;58633;49.470;11.004;2023-07-24T07:48:07;13.90;;;6.55;;
6823;SDS011;58633;49.470;11.004;2023-07-24T07:50:34;12.95;;;7.00;;
6823;SDS011;58633;49.470;11.004;2023-07-24T07:52:59;10.38;;;6.70;;
6823;SDS011;58633;49.470;11.004;2023-07-24T07:55:25;12.57;;;6.90;;
6823;SDS011;58633;49.470;11.004;2023-07-24T07:57:50;11.82;;;6.40;;
6823;SDS011;58633;49.470;11.004;2023-07-24T08:00:16;9.40;;;7.30;;
6823;SDS011;58633;49.470;11.004;2023-07-24T08:02:41;9.40;;;6.50;;
6823;SDS011;58633;49.470;11.004;2023-07-24T08:05:08;12.73;;;6.82;;
6823;SDS011;58633;49.470;11.004;2023-07-24T08:07:34;11.57;;;6.85;;
6823;SDS011;58633;49.470;11.004;2023-07-24T08:10:00;10.25;;;6.63;;
6823;SDS011;58633;49.470;11.004;2023-07-24T08:12:26;11.27;;;6.45;;
6823;SDS011;58633;49.470;11.004;2023-07-24T08:14:52;11.35;;;6.30;;
6823;SDS011;58633;49.470;11.004;2023-07-24T08:17:17;10.98;;;6.97;;
6823;SDS011;58633;49.470;11.004;2023-07-24T08:19:43;13.48;;;6.72;;
6823;SDS011;58633;49.470;11.004;2023-07-24T08:22:08;9.27;;;6.07;;
6823;SDS011;58633;49.470;11.004;2023-07-24T08:24:34;12.68;;;7.05;;
6823;SDS011;58633;49.470;11.004;2023-07-24T08:27:00;11.32;;;6.85;;
6823;SDS011;58633;49.470;11.004;2023-07-24T08:29:26;10.73;;;6.68;;
6823;SDS011;58633;49.470;11.004;2023-07-24T08:31:51;14.00;;;6.60;;
6823;SDS011;58633;49.470;11.004;2023-07-24T08:34:17;9.07;;;6.50;;
6823;SDS011;58633;49.470;11.004;2023-07-24T08:36:42;10.70;;;7.00;;
6823;SDS011;58633;49.470;11.004;2023-07-24T08:39:08;10.55;;;6.55;;
6823;SDS011;58633;49.470;11.004;2023-07-24T08:41:34;10.90;;;6.18;;
6823;SDS011;58633;49.470;11.004;2023-07-24T08:44:00;9.18;;;5.97;;
6823;SDS011;58633;49.470;11.004;2023-07-24T08:46:27;12.65;;;6.80;;
6823;SDS011;58633;49.470;11.004;2023-07-24T08:48:53;10.40;;;6.93;;
6823;SDS011;58633;49.470;11.004;2023-07-24T08:51:19;9.55;;;6.45;;
6823;SDS011;58633;49.470;11.004;2023-07-24T08:53:46;12.27;;;6.60;;
6823;SDS011;58633;49.470;11.004;2023-07-24T08:56:13;8.13;;;6.40;;
6823;SDS011;58633;49.470;11.004;2023-07-24T08:58:39;10.48;;;7.00;;
6823;SDS011;58633;49.470;11.004;2023-07-24T09:01:05;10.68;;;6.55;;
6823;SDS011;58633;49.470;11.004;2023-07-24T09:03:31;10.88;;;6.63;;
6823;SDS011;58633;49.470;11.004;2023-07-24T09:05:57;9.23;;;6.53;;
6823;SDS011;58633;49.470;11.004;2023-07-24T09:10:56;11.13;;;6.45;;
6823;SDS011;58633;49.470;11.004;2023-07-24T09:13:22;9.45;;;6.78;;
6823;SDS011;58633;49.470;11.004;2023-07-24T09:15:47;10.02;;;6.97;;
6823;SDS011;58633;49.470;11.004;2023-07-24T09:18:13;13.18;;;7.40;;
6823;SDS011;58633;49.470;11.004;2023-07-24T09:20:40;12.10;;;6.70;;
6823;SDS011;58633;49.470;11.004;2023-07-24T09:23:07;12.68;;;7.63;;
6823;SDS011;58633;49.470;11.004;2023-07-24T09:25:34;14.23;;;7.93;;
6823;SDS011;58633;49.470;11.004;2023-07-24T09:28:00;10.85;;;7.40;;
6823;SDS011;58633;49.470;11.004;2023-07-24T09:30:26;9.48;;;6.95;;
6823;SDS011;58633;49.470;11.004;2023-07-24T09:32:52;9.85;;;6.60;;
6823;SDS011;58633;49.470;11.004;2023-07-24T09:35:19;11.30;;;6.72;;
6823;SDS011;58633;49.470;11.004;2023-07-24T09:37:47;13.35;;;7.30;;
6823;SDS011;58633;49.470;11.004;2023-07-24T09:40:14;10.50;;;7.05;;
6823;SDS011;58633;49.470;11.004;2023-07-24T09:42:40;10.40;;;7.13;;
6823;SDS011;58633;49.470;11.004;2023-07-24T09:45:06;11.32;;;6.93;;
6823;SDS011;58633;49.470;11.004;2023-07-24T09:47:35;9.68;;;6.93;;
6823;SDS011;58633;49.470;11.004;2023-07-24T09:50:02;12.93;;;7.65;;
6823;SDS011;58633;49.470;11.004;2023-07-24T09:52:29;10.77;;;6.82;;
6823;SDS011;58633;49.470;11.004;2023-07-24T09:54:59;10.65;;;7.03;;
6823;SDS011;58633;49.470;11.004;2023-07-24T09:57:30;10.73;;;6.82;;
6823;SDS011;58633;49.470;11.004;2023-07-24T09:59:57;12.70;;;6.88;;
6823;SDS011;58633;49.470;11.004;2023-07-24T10:02:23;10.63;;;7.03;;
6823;SDS011;58633;49.470;11.004;2023-07-24T10:04:49;9.73;;;6.38;;
6823;SDS011;58633;49.470;11.004;2023-07-24T10:07:15;9.10;;;6.75;;
6823;SDS011;58633;49.470;11.004;2023-07-24T10:09:42;9.38;;;6.95;;
6823;SDS011;58633;49.470;11.004;2023-07-24T10:12:08;10.70;;;6.93;;
6823;SDS011;58633;49.470;11.004;2023-07-24T10:14:34;8.82;;;6.07;;
6823;SDS011;58633;49.470;11.004;2023-07-24T10:17:01;10.05;;;6.25;;
6823;SDS011;58633;49.470;11.004;2023-07-24T10:19:38;11.07;;;6.20;;
6823;SDS011;58633;49.470;11.004;2023-07-24T10:22:09;9.48;;;6.32;;
6823;SDS011;58633;49.470;11.004;2023-07-24T10:24:43;10.60;;;6.95;;
6823;SDS011;58633;49.470;11.004;2023-07-24T10:27:08;10.57;;;6.50;;
6823;SDS011;58633;49.470;11.004;2023-07-24T10:29:34;9.18;;;6.43;;
6823;SDS011;58633;49.470;11.004;2023-07-24T10:32:01;9.27;;;6.30;;
6823;SDS011;58633;49.470;11.004;2023-07-24T10:34:39;10.93;;;6.85;;
6823;SDS011;58633;49.470;11.004;2023-07-24T10:37:08;12.48;;;6.93;;
6823;SDS011;58633;49.470;11.004;2023-07-24T10:39:40;12.77;;;7.22;;
6823;SDS011;58633;49.470;11.004;2023-07-24T10:42:07;9.57;;;6.13;;
6823;SDS011;58633;49.470;11.004;2023-07-24T10:44:34;8.68;;;6.35;;
6823;SDS011;58633;49.470;11.004;2023-07-24T10:47:00;10.73;;;6.78;;
6823;SDS011;58633;49.470;11.004;2023-07-24T10:49:25;11.40;;;7.00;;
6823;SDS011;58633;49.470;11.004;2023-07-24T10:51:57;12.15;;;7.28;;
6823;SDS011;58633;49.470;11.004;2023-07-24T10:54:24;9.93;;;6.30;;
6823;SDS011;58633;49.470;11.004;2023-07-24T10:56:49;10.80;;;6.68;;
6823;SDS011;58633;49.470;11.004;2023-07-24T10:59:22;9.32;;;6.88;;
6823;SDS011;58633;49.470;11.004;2023-07-24T11:01:48;12.27;;;8.00;;
6823;SDS011;58633;49.470;11.004;2023-07-24T11:04:13;9.50;;;7.10;;
6823;SDS011;58633;49.470;11.004;2023-07-24T11:06:39;10.73;;;6.70;;
6823;SDS011;58633;49.470;11.004;2023-07-24T11:09:05;12.13;;;6.93;;
6823;SDS011;58633;49.470;11.004;2023-07-24T11:11:31;11.50;;;6.97;;
6823;SDS011;58633;49.470;11.004;2023-07-24T11:13:57;10.93;;;7.15;;
6823;SDS011;58633;49.470;11.004;2023-07-24T11:16:24;11.32;;;7.05;;
6823;SDS011;58633;49.470;11.004;2023-07-24T11:18:50;9.63;;;6.22;;
6823;SDS011;58633;49.470;11.004;2023-07-24T11:21:20;15.30;;;7.35;;
6823;SDS011;58633;49.470;11.004;2023-07-24T11:23:51;12.15;;;6.40;;
6823;SDS011;58633;49.470;11.004;2023-07-24T11:26:24;12.77;;;6.40;;
6823;SDS011;58633;49.470;11.004;2023-07-24T11:28:50;10.77;;;6.63;;
6823;SDS011;58633;49.470;11.004;2023-07-24T11:31:17;11.32;;;6.72;;
6823;SDS011;58633;49.470;11.004;2023-07-24T11:33:45;13.05;;;6.70;;
6823;SDS011;58633;49.470;11.004;2023-07-24T11:36:11;12.52;;;6.85;;
6823;SDS011;58633;49.470;11.004;2023-07-24T11:38:38;10.27;;;6.80;;
6823;SDS011;58633;49.470;11.004;2023-07-24T11:41:04;9.70;;;6.82;;
6823;SDS011;58633;49.470;11.004;2023-07-24T11:43:29;12.65;;;6.88;;
6823;SDS011;58633;49.470;11.004;2023-07-24T11:45:55;10.02;;;6.85;;
6823;SDS011;58633;49.470;11.004;2023-07-24T11:48:21;12.77;;;6.28;;
6823;SDS011;58633;49.470;11.004;2023-07-24T11:50:52;13.52;;;6.93;;
6823;SDS011;58633;49.470;11.004;2023-07-24T11:55:50;10.38;;;7.38;;
6823;SDS011;58633;49.470;11.004;2023-07-24T11:58:16;11.27;;;6.95;;
6823;SDS011;58633;49.470;11.004;2023-07-24T12:00:43;9.38;;;6.32;;
6823;SDS011;58633;49.470;11.004;2023-07-24T12:03:08;8.93;;;6.18;;
6823;SDS011;58633;49.470;11.004;2023-07-24T12:05:38;10.65;;;6.47;;
6823;SDS011;58633;49.470;11.004;2023-07-24T12:08:04;9.50;;;6.78;;
6823;SDS011;58633;49.470;11.004;2023-07-24T12:10:30;9.45;;;6.45;;
6823;SDS011;58633;49.470;11.004;2023-07-24T12:12:57;10.18;;;5.85;;
6823;SDS011;58633;49.470;11.004;2023-07-24T12:15:24;7.85;;;5.85;;
6823;SDS011;58633;49.470;11.004;2023-07-24T12:17:51;6.55;;;4.82;;
6823;SDS011;58633;49.470;11.004;2023-07-24T12:20:17;9.52;;;4.85;;
6823;SDS011;58633;49.470;11.004;2023-07-24T12:22:42;9.68;;;4.95;;
6823;SDS011;58633;49.470;11.004;2023-07-24T12:25:08;7.95;;;4.85;;
6823;SDS011;58633;49.470;11.004;2023-07-24T12:27:33;7.72;;;4.63;;
6823;SDS011;58633;49.470;11.004;2023-07-24T12:29:59;5.20;;;4.55;;
6823;SDS011;58633;49.470;11.004;2023-07-24T12:32:25;6.70;;;5.05;;
6823;SDS011;58633;49.470;11.004;2023-07-24T12:34:51;5.63;;;4.35;;
6823;SDS011;58633;49.470;11.004;2023-07-24T12:37:17;6.40;;;4.47;;
6823;SDS011;58633;49.470;11.004;2023-07-24T12:39:44;7.32;;;4.50;;
6823;SDS011;58633;49.470;11.004;2023-07-24T12:42:10;5.93;;;4.28;;
6823;SDS011;58633;49.470;11.004;2023-07-24T12:44:36;7.20;;;4.18;;
6823;SDS011;58633;49.470;11.004;2023-07-24T12:47:02;6.32;;;4.18;;
6823;SDS011;58633;49.470;11.004;2023-07-24T12:49:28;5.63;;;4.13;;
6823;SDS011;58633;49.470;11.004;2023-07-24T12:51:54;5.38;;;4.43;;
6823;SDS011;58633;49.470;11.004;2023-07-24T12:54:19;7.38;;;4.80;;
6823;SDS011;58633;49.470;11.004;2023-07-24T12:56:46;5.25;;;3.97;;
6823;SDS011;58633;49.470;11.004;2023-07-24T12:59:12;9.05;;;4.25;;
6823;SDS011;58633;49.470;11.004;2023-07-24T13:01:38;7.90;;;4.32;;
6823;SDS011;58633;49.470;11.004;2023-07-24T13:04:03;7.90;;;4.55;;
6823;SDS011;58633;49.470;11.004;2023-07-24T13:06:29;5.47;;;4.53;;
6823;SDS011;58633;49.470;11.004;2023-07-24T13:08:54;5.75;;;4.43;;
6823;SDS011;58633;49.470;11.004;2023-07-24T13:11:20;5.63;;;4.57;;
6823;SDS011;58633;49.470;11.004;2023-07-24T13:13:46;7.25;;;4.85;;
6823;SDS011;58633;49.470;11.004;2023-07-24T13:16:12;7.38;;;4.82;;
6823;SDS011;58633;49.470;11.004;2023-07-24T13:18:38;8.25;;;4.82;;
6823;SDS011;58633;49.470;11.004;2023-07-24T13:21:04;7.97;;;4.47;;
6823;SDS011;58633;49.470;11.004;2023-07-24T13:23:31;6.20;;;4.25;;
6823;SDS011;58633;49.470;11.004;2023-07-24T13:25:57;5.70;;;4.65;;
6823;SDS011;58633;49.470;11.004;2023-07-24T13:28:22;6.00;;;4.57;;
6823;SDS011;58633;49.470;11.004;2023-07-24T13:30:48;6.50;;;4.68;;
6823;SDS011;58633;49.470;11.004;2023-07-24T13:33:14;6.35;;;4.90;;
6823;SDS011;58633;49.470;11.004;2023-07-24T13:35:39;5.47;;;4.25;;
6823;SDS011;58633;49.470;11.004;2023-07-24T13:38:05;6.50;;;4.30;;
6823;SDS011;58633;49.470;11.004;2023-07-24T13:40:33;7.28;;;4.57;;
6823;SDS011;58633;49.470;11.004;2023-07-24T13:42:59;6.40;;;4.57;;
6823;SDS011;58633;49.470;11.004;2023-07-24T13:45:24;4.90;;;4.28;;
6823;SDS011;58633;49.470;11.004;2023-07-24T13:47:50;5.10;;;4.13;;
6823;SDS011;58633;49.470;11.004;2023-07-24T13:50:15;6.30;;;4.60;;
6823;SDS011;58633;49.470;11.004;2023-07-24T13:52:41;4.30;;;3.85;;
6823;SDS011;58633;49.470;11.004;2023-07-24T13:55:07;5.15;;;4.20;;
6823;SDS011;58633;49.470;11.004;2023-07-24T13:57:32;5.60;;;3.95;;
6823;SDS011;58633;49.470;11.004;2023-07-24T13:59:58;4.80;;;3.85;;
6823;SDS011;58633;49.470;11.004;2023-07-24T14:02:23;5.88;;;3.90;;
6823;SDS011;58633;49.470;11.004;2023-07-24T14:04:49;4.97;;;3.97;;
6823;SDS011;58633;49.470;11.004;2023-07-24T14:07:15;6.00;;;3.90;;
6823;SDS011;58633;49.470;11.004;2023-07-24T14:09:40;4.85;;;4.10;;
6823;SDS011;58633;49.470;11.004;2023-07-24T14:12:06;7.88;;;4.47;;
6823;SDS011;58633;49.470;11.004;2023-07-24T14:14:32;4.60;;;3.90;;
6823;SDS011;58633;49.470;11.004;2023-07-24T14:16:57;5.60;;;3.75;;
6823;SDS011;58633;49.470;11.004;2023-07-24T14:19:23;4.75;;;3.85;;
6823;SDS011;58633;49.470;11.004;2023-07-24T14:21:48;4.28;;;3.80;;
6823;SDS011;58633;49.470;11.004;2023-07-24T14:24:15;6.20;;;4.05;;
6823;SDS011;58633;49.470;11.004;2023-07-24T14:26:41;4.65;;;3.78;;
6823;SDS011;58633;49.470;11.004;2023-07-24T14:29:06;4.90;;;3.80;;
6823;SDS011;58633;49.470;11.004;2023-07-24T14:31:32;6.70;;;4.50;;
6823;SDS011;58633;49.470;11.004;2023-07-24T14:33:57;6.40;;;4.22;;
6823;SDS011;58633;49.470;11.004;2023-07-24T14:36:23;6.78;;;4.28;;
6823;SDS011;58633;49.470;11.004;2023-07-24T14:38:48;5.57;;;3.92;;